Time;durP1;ratioP1;P1;durP2;ratioP2;P2;SDS_P1;SDS_P2;PMS_P1;PMS_P2;Temp;Humidity;BMP_temperature;BMP_pressure;BME280_temperature;BME280_humidity;BME280_pressure;Samples;Min_cycle;Max_cycle;Signal;HPM_P1;HPM_P2
2022/04/27 00:00:25;;;;;;;26.80;7.93;;;;;;;;;;4990755;28;20480;-66
2022/04/27 00:02:51;;;;;;;21.02;6.43;;;;;;;;;;4991195;28;20038;-66
2022/04/27 00:05:18;;;;;;;25.50;7.70;;;;;;;;;;4990832;28;20026;-66
2022/04/27 00:07:44;;;;;;;31.77;7.22;;;;;;;;;;4991211;28;20058;-66
2022/04/27 00:10:10;;;;;;;25.08;7.60;;;;;;;;;;4990748;28;20411;-66
2022/04/27 00:12:37;;;;;;;23.52;6.75;;;;;;;;;;4990672;28;20038;-66
2022/04/27 00:15:04;;;;;;;21.13;7.50;;;;;;;;;;4990605;28;20025;-66
2022/04/27 00:17:30;;;;;;;16.80;6.35;;;;;;;;;;4990652;28;20026;-66
2022/04/27 00:19:56;;;;;;;24.23;7.15;;;;;;;;;;4990363;28;20023;-66
2022/04/27 00:22:22;;;;;;;20.77;7.03;;;;;;;;;;4990678;28;20100;-66
2022/04/27 00:24:48;;;;;;;27.40;7.18;;;;;;;;;;4990718;28;20491;-66
2022/04/27 00:27:15;;;;;;;22.17;7.10;;;;;;;;;;4990619;28;20030;-66
2022/04/27 00:29:41;;;;;;;22.60;7.72;;;;;;;;;;4990297;28;20041;-66
2022/04/27 00:32:07;;;;;;;34.47;8.13;;;;;;;;;;4990717;28;20045;-66
2022/04/27 00:34:33;;;;;;;18.38;6.25;;;;;;;;;;4990275;28;20018;-66
2022/04/27 00:37:00;;;;;;;15.25;5.80;;;;;;;;;;4990778;28;20034;-66
2022/04/27 00:39:26;;;;;;;22.63;6.40;;;;;;;;;;4990374;28;20036;-66
2022/04/27 00:42:02;;;;;;;21.13;7.50;;;;;;;;;;4990569;28;20112;-66
2022/04/27 00:44:33;;;;;;;21.15;6.45;;;;;;;;;;4989749;28;20496;-66
2022/04/27 00:47:01;;;;;;;18.38;6.65;;;;;;;;;;4990503;28;20061;-66
2022/04/27 00:49:27;;;;;;;24.27;6.35;;;;;;;;;;4990208;28;20396;-66
2022/04/27 00:51:54;;;;;;;23.33;7.07;;;;;;;;;;4990481;28;20037;-66
2022/04/27 00:54:22;;;;;;;25.60;7.25;;;;;;;;;;4988899;28;20409;-66
2022/04/27 00:56:51;;;;;;;17.50;6.68;;;;;;;;;;4990046;28;20472;-66
2022/04/27 00:59:18;;;;;;;20.77;6.30;;;;;;;;;;4989907;28;20377;-66
2022/04/27 01:01:45;;;;;;;23.20;7.18;;;;;;;;;;4988963;28;20031;-66
2022/04/27 01:04:11;;;;;;;19.02;6.47;;;;;;;;;;4988833;28;20049;-66
2022/04/27 01:06:39;;;;;;;17.45;6.55;;;;;;;;;;4989813;28;20034;-66
2022/04/27 01:09:05;;;;;;;18.85;6.85;;;;;;;;;;4990125;28;20036;-66
2022/04/27 01:11:32;;;;;;;20.60;6.38;;;;;;;;;;4988773;28;20027;-66
2022/04/27 01:13:58;;;;;;;20.20;6.60;;;;;;;;;;4988555;28;20035;-66
2022/04/27 01:16:25;;;;;;;23.60;7.07;;;;;;;;;;4989927;28;20030;-66
2022/04/27 01:18:51;;;;;;;22.58;6.05;;;;;;;;;;4989929;28;20054;-66
2022/04/27 01:21:18;;;;;;;26.02;7.43;;;;;;;;;;4988945;28;20042;-66
2022/04/27 01:23:55;;;;;;;19.38;6.25;;;;;;;;;;4988956;28;20115;-66
2022/04/27 01:26:21;;;;;;;14.93;6.90;;;;;;;;;;4988655;28;20042;-66
2022/04/27 01:28:47;;;;;;;21.77;6.03;;;;;;;;;;4988353;28;20499;-66
2022/04/27 01:31:14;;;;;;;25.60;6.15;;;;;;;;;;4989991;28;20023;-66
2022/04/27 01:33:40;;;;;;;20.10;6.47;;;;;;;;;;4992979;28;20041;-66
2022/04/27 01:36:07;;;;;;;16.13;5.70;;;;;;;;;;4993316;28;20038;-66
2022/04/27 01:38:36;;;;;;;18.05;6.50;;;;;;;;;;4992933;28;20023;-66
2022/04/27 01:41:05;;;;;;;30.73;10.57;;;;;;;;;;4992912;28;20117;-66
2022/04/27 01:43:33;;;;;;;23.58;6.80;;;;;;;;;;4992874;28;20022;-66
2022/04/27 01:46:00;;;;;;;20.58;6.47;;;;;;;;;;4993317;28;20030;-66
2022/04/27 01:48:29;;;;;;;27.20;6.90;;;;;;;;;;4993006;28;20040;-66
2022/04/27 01:50:55;;;;;;;12.02;6.95;;;;;;;;;;4991816;28;20022;-66
2022/04/27 01:56:09;;;;;;;17.33;6.25;;;;;;;;;;4991153;28;20046;-66
2022/04/27 01:58:41;;;;;;;18.80;7.13;;;;;;;;;;4991604;28;20042;-66
2022/04/27 02:01:11;;;;;;;20.58;6.50;;;;;;;;;;4991759;28;20034;-66
2022/04/27 02:03:39;;;;;;;23.88;7.20;;;;;;;;;;4991469;28;20060;-66
2022/04/27 02:06:09;;;;;;;16.60;6.43;;;;;;;;;;4991664;28;20121;-66
2022/04/27 02:08:35;;;;;;;19.25;6.03;;;;;;;;;;4991279;28;20133;-66
2022/04/27 02:11:01;;;;;;;21.45;6.07;;;;;;;;;;4991402;28;20143;-66
2022/04/27 02:13:28;;;;;;;23.48;6.43;;;;;;;;;;4991496;28;20057;-66
2022/04/27 02:16:00;;;;;;;20.33;6.30;;;;;;;;;;4991241;28;20027;-66
2022/04/27 02:18:39;;;;;;;20.98;7.03;;;;;;;;;;4991294;28;20461;-66
2022/04/27 02:21:06;;;;;;;21.38;6.18;;;;;;;;;;4992679;28;20030;-66
2022/04/27 02:23:32;;;;;;;31.27;7.05;;;;;;;;;;4991236;28;20022;-66
2022/04/27 02:26:01;;;;;;;15.00;6.95;;;;;;;;;;4991073;28;20117;-66
2022/04/27 02:28:27;;;;;;;21.67;7.43;;;;;;;;;;4990999;28;20053;-66
2022/04/27 02:30:53;;;;;;;18.90;8.13;;;;;;;;;;4991225;28;20048;-66
2022/04/27 02:33:19;;;;;;;19.75;6.07;;;;;;;;;;4992468;28;20072;-66
2022/04/27 02:35:46;;;;;;;21.83;6.30;;;;;;;;;;4984101;28;20110;-66
2022/04/27 02:38:12;;;;;;;22.13;6.43;;;;;;;;;;4984357;28;20023;-66
2022/04/27 02:40:38;;;;;;;22.52;6.72;;;;;;;;;;4994481;28;20070;-66
2022/04/27 02:43:05;;;;;;;19.80;6.93;;;;;;;;;;4991383;28;20041;-66
2022/04/27 02:45:31;;;;;;;21.35;6.25;;;;;;;;;;4990335;28;20054;-66
2022/04/27 02:47:58;;;;;;;19.17;6.88;;;;;;;;;;4974639;28;20026;-66
2022/04/27 02:53:09;;;;;;;24.73;6.75;;;;;;;;;;4983567;28;20026;-66
2022/04/27 02:55:36;;;;;;;16.92;6.53;;;;;;;;;;4989528;28;20053;-66
2022/04/27 02:58:03;;;;;;;18.35;6.78;;;;;;;;;;4990122;28;20038;-66
2022/04/27 03:00:31;;;;;;;21.40;6.35;;;;;;;;;;4983487;28;20114;-66
2022/04/27 03:03:07;;;;;;;16.20;6.53;;;;;;;;;;4981021;28;20050;-66
2022/04/27 03:05:33;;;;;;;18.50;6.13;;;;;;;;;;5020409;28;20020;-66
2022/04/27 03:08:00;;;;;;;18.40;6.75;;;;;;;;;;4986110;28;20531;-66
2022/04/27 03:10:29;;;;;;;17.58;5.85;;;;;;;;;;5013632;28;20052;-66
2022/04/27 03:12:55;;;;;;;14.70;6.05;;;;;;;;;;4981378;28;20114;-66
2022/04/27 03:15:22;;;;;;;18.08;6.57;;;;;;;;;;4983805;28;20027;-66
2022/04/27 03:18:16;;;;;;;18.67;5.93;;;;;;;;;;4978629;28;20027;-66
2022/04/27 03:20:34;;;;;;;20.08;6.25;;;;;;;;;;4978462;28;20420;-66
2022/04/27 03:23:01;;;;;;;19.60;6.43;;;;;;;;;;5010610;28;20483;-66
2022/04/27 03:25:27;;;;;;;15.63;6.35;;;;;;;;;;4982981;28;20035;-66
2022/04/27 03:27:55;;;;;;;15.68;6.18;;;;;;;;;;4978511;28;20030;-66
2022/04/27 03:30:22;;;;;;;12.73;6.38;;;;;;;;;;4982936;28;20023;-66
2022/04/27 03:32:50;;;;;;;19.48;6.40;;;;;;;;;;4997170;28;20038;-66
2022/04/27 03:35:16;;;;;;;17.48;6.20;;;;;;;;;;4983181;28;20075;-66
2022/04/27 03:37:42;;;;;;;19.25;6.30;;;;;;;;;;4980933;28;20019;-66
2022/04/27 03:40:09;;;;;;;16.63;6.50;;;;;;;;;;4974670;28;20032;-66
2022/04/27 03:42:36;;;;;;;20.48;6.43;;;;;;;;;;4981564;28;20084;-66
2022/04/27 03:45:02;;;;;;;25.75;6.53;;;;;;;;;;4981241;28;20464;-66
2022/04/27 03:47:36;;;;;;;21.15;7.43;;;;;;;;;;4981831;28;20023;-66
2022/04/27 03:50:04;;;;;;;25.45;7.07;;;;;;;;;;4978202;28;20161;-66
2022/04/27 03:52:36;;;;;;;17.80;6.00;;;;;;;;;;4977414;28;20018;-66
2022/04/27 03:55:02;;;;;;;13.35;6.30;;;;;;;;;;4988905;28;20026;-66
2022/04/27 03:57:29;;;;;;;19.67;5.70;;;;;;;;;;4989643;28;20385;-66
2022/04/27 03:59:55;;;;;;;13.55;6.25;;;;;;;;;;4988936;28;20057;-66
2022/04/27 04:02:21;;;;;;;13.02;5.80;;;;;;;;;;4989931;28;20034;-66
2022/04/27 04:04:48;;;;;;;17.83;5.65;;;;;;;;;;4989825;28;20037;-66
2022/04/27 04:07:15;;;;;;;19.50;6.10;;;;;;;;;;4989337;28;20030;-66
2022/04/27 04:09:49;;;;;;;18.58;5.97;;;;;;;;;;4989509;28;20087;-66
2022/04/27 04:12:16;;;;;;;14.32;5.78;;;;;;;;;;4989713;28;20038;-66
2022/04/27 04:15:03;;;;;;;13.60;6.85;;;;;;;;;;4990569;28;20044;-66
2022/04/27 04:17:45;;;;;;;11.55;5.07;;;;;;;;;;4989729;28;20061;-66
2022/04/27 04:20:25;;;;;;;12.75;5.88;;;;;;;;;;4990546;28;20084;-66
2022/04/27 04:23:17;;;;;;;15.95;5.43;;;;;;;;;;5070778;28;20397;-66
2022/04/27 04:28:36;;;;;;;20.02;7.97;;;;;;;;;;5070483;28;19999;-66
2022/04/27 04:31:05;;;;;;;15.70;5.95;;;;;;;;;;5053656;28;20112;-66
2022/04/27 04:34:06;;;;;;;14.50;5.72;;;;;;;;;;5050264;28;20029;-66
2022/04/27 04:36:33;;;;;;;19.95;5.63;;;;;;;;;;5033525;28;20029;-66
2022/04/27 04:38:59;;;;;;;13.57;5.53;;;;;;;;;;5033309;28;20060;-66
2022/04/27 04:41:29;;;;;;;19.58;7.57;;;;;;;;;;5033629;28;20041;-66
2022/04/27 04:43:57;;;;;;;12.55;5.10;;;;;;;;;;5033546;28;20448;-66
2022/04/27 04:46:25;;;;;;;20.40;5.78;;;;;;;;;;5050387;28;20380;-66
2022/04/27 04:49:00;;;;;;;18.05;5.88;;;;;;;;;;5033145;28;20041;-66
2022/04/27 04:51:45;;;;;;;23.40;6.75;;;;;;;;;;5050286;28;20127;-66
2022/04/27 04:54:42;;;;;;;24.83;5.55;;;;;;;;;;5033443;28;20495;-66
2022/04/27 04:57:08;;;;;;;14.52;5.80;;;;;;;;;;5049971;28;20507;-66
2022/04/27 04:59:58;;;;;;;12.00;5.22;;;;;;;;;;4993142;28;20506;-66
2022/04/27 05:02:42;;;;;;;11.32;5.18;;;;;;;;;;5009400;28;20946;-66
2022/04/27 05:05:32;;;;;;;16.90;5.80;;;;;;;;;;4969152;28;20046;-66
2022/04/27 05:08:09;;;;;;;13.60;5.60;;;;;;;;;;4982901;28;20052;-66
2022/04/27 05:11:04;;;;;;;13.63;4.95;;;;;;;;;;4997913;28;20524;-66
2022/04/27 05:13:53;;;;;;;14.95;5.13;;;;;;;;;;4987056;28;20037;-66
2022/04/27 05:16:39;;;;;;;15.38;5.50;;;;;;;;;;4994891;28;20076;-66
2022/04/27 05:19:24;;;;;;;15.35;5.53;;;;;;;;;;5008511;28;20037;-66
2022/04/27 05:22:16;;;;;;;21.55;5.60;;;;;;;;;;4977409;28;20036;-66
2022/04/27 05:24:45;;;;;;;11.50;4.80;;;;;;;;;;5007036;28;20644;-66
2022/04/27 05:27:24;;;;;;;11.48;5.20;;;;;;;;;;4988489;28;20030;-66
2022/04/27 05:33:23;;;;;;;10.77;5.75;;;;;;;;;;5000244;28;20371;-66
2022/04/27 05:36:11;;;;;;;12.43;5.25;;;;;;;;;;4987289;28;20119;-66
2022/04/27 05:38:57;;;;;;;15.23;5.55;;;;;;;;;;5030205;28;20107;-65
2022/04/27 05:41:51;;;;;;;13.25;5.28;;;;;;;;;;5013865;28;20573;-66
2022/04/27 05:44:36;;;;;;;13.02;5.03;;;;;;;;;;4979458;28;20041;-66
2022/04/27 05:47:18;;;;;;;13.47;5.33;;;;;;;;;;4985982;28;20167;-65
2022/04/27 05:50:14;;;;;;;11.02;5.25;;;;;;;;;;5001474;28;20043;-65
2022/04/27 05:53:06;;;;;;;7.53;4.45;;;;;;;;;;4992154;28;20042;-65
2022/04/27 05:55:43;;;;;;;19.17;5.35;;;;;;;;;;4989614;28;20213;-65
2022/04/27 05:58:30;;;;;;;9.35;4.30;;;;;;;;;;4976722;28;20042;-65
2022/04/27 06:01:08;;;;;;;13.60;5.30;;;;;;;;;;4972313;28;20042;-65
2022/04/27 06:03:45;;;;;;;15.27;5.43;;;;;;;;;;4969159;28;20031;-66
2022/04/27 06:06:11;;;;;;;9.88;4.70;;;;;;;;;;4969930;28;20435;-66
2022/04/27 06:08:38;;;;;;;11.32;5.18;;;;;;;;;;4975779;28;20039;-65
2022/04/27 06:11:08;;;;;;;15.23;5.70;;;;;;;;;;4968295;28;20514;-65
2022/04/27 06:13:54;;;;;;;16.63;4.57;;;;;;;;;;4978175;28;20027;-65
2022/04/27 06:16:33;;;;;;;11.23;4.28;;;;;;;;;;4985212;28;20022;-66
2022/04/27 06:19:10;;;;;;;14.13;5.13;;;;;;;;;;4977766;28;20677;-65
2022/04/27 06:21:37;;;;;;;11.13;4.18;;;;;;;;;;5085027;28;20036;-66
2022/04/27 06:24:05;;;;;;;19.33;4.60;;;;;;;;;;5014028;28;20056;-66
2022/04/27 06:26:33;;;;;;;20.00;4.78;;;;;;;;;;4981722;28;20027;-66
2022/04/27 06:29:00;;;;;;;12.63;4.43;;;;;;;;;;4991139;28;20431;-66
2022/04/27 06:31:27;;;;;;;14.15;4.13;;;;;;;;;;4990655;28;20435;-66
2022/04/27 06:33:58;;;;;;;11.95;3.78;;;;;;;;;;5056559;28;20054;-66
2022/04/27 06:36:24;;;;;;;11.30;4.47;;;;;;;;;;4974982;28;20509;-67
2022/04/27 06:38:51;;;;;;;13.82;5.22;;;;;;;;;;4981838;28;20068;-67
2022/04/27 06:41:27;;;;;;;10.98;3.85;;;;;;;;;;4984961;28;20030;-66
2022/04/27 06:44:19;;;;;;;10.73;4.55;;;;;;;;;;5049001;28;20384;-66
2022/04/27 06:47:04;;;;;;;9.60;4.10;;;;;;;;;;5051233;28;20112;-66
2022/04/27 06:49:49;;;;;;;7.13;3.72;;;;;;;;;;5048258;28;20072;-66
2022/04/27 06:52:46;;;;;;;8.23;3.90;;;;;;;;;;5047036;28;20042;-66
2022/04/27 06:55:31;;;;;;;9.57;3.85;;;;;;;;;;5049902;28;20075;-66
2022/04/27 06:58:16;;;;;;;9.10;4.25;;;;;;;;;;5046990;28;20399;-66
2022/04/27 07:00:46;;;;;;;11.60;4.07;;;;;;;;;;5032209;28;20024;-65
2022/04/27 07:03:13;;;;;;;14.20;4.43;;;;;;;;;;5048806;28;20036;-66
2022/04/27 07:05:40;;;;;;;9.25;3.50;;;;;;;;;;5033005;28;20029;-66
2022/04/27 07:08:06;;;;;;;8.10;3.92;;;;;;;;;;5033158;28;20052;-66
2022/04/27 07:10:38;;;;;;;11.43;3.70;;;;;;;;;;5049736;28;20071;-66
2022/04/27 07:13:05;;;;;;;10.50;3.80;;;;;;;;;;5049629;28;20028;-66
2022/04/27 07:15:31;;;;;;;9.77;3.60;;;;;;;;;;5048998;28;20059;-66
2022/04/27 07:17:57;;;;;;;10.48;4.70;;;;;;;;;;5049841;28;20048;-66
2022/04/27 07:20:23;;;;;;;9.40;4.15;;;;;;;;;;5036690;28;20444;-66
2022/04/27 07:22:49;;;;;;;9.63;3.78;;;;;;;;;;4983729;28;20503;-66
2022/04/27 07:25:18;;;;;;;12.10;3.83;;;;;;;;;;4980391;28;20030;-66
2022/04/27 07:27:45;;;;;;;7.70;3.22;;;;;;;;;;4976161;28;20045;-66
2022/04/27 07:30:11;;;;;;;8.13;3.70;;;;;;;;;;4990135;28;20030;-66
2022/04/27 07:32:37;;;;;;;9.82;4.05;;;;;;;;;;4985560;28;20489;-66
2022/04/27 07:35:03;;;;;;;11.13;3.83;;;;;;;;;;4978578;28;20023;-66
2022/04/27 07:37:30;;;;;;;13.38;3.60;;;;;;;;;;4985170;28;20086;-66
2022/04/27 07:39:58;;;;;;;8.20;3.85;;;;;;;;;;4989377;28;20449;-66
2022/04/27 07:42:24;;;;;;;9.13;3.50;;;;;;;;;;4986215;28;20046;-66
2022/04/27 07:44:50;;;;;;;12.35;4.70;;;;;;;;;;4981316;28;20440;-66
2022/04/27 07:47:16;;;;;;;14.35;4.00;;;;;;;;;;4981710;28;20035;-66
2022/04/27 07:49:44;;;;;;;10.70;4.53;;;;;;;;;;4981121;28;20099;-66
2022/04/27 07:52:10;;;;;;;13.23;3.85;;;;;;;;;;4978843;28;20027;-66
2022/04/27 07:54:36;;;;;;;17.67;4.07;;;;;;;;;;4975583;28;20077;-66
2022/04/27 07:57:03;;;;;;;18.63;5.60;;;;;;;;;;4974914;28;20062;-66
2022/04/27 07:59:30;;;;;;;13.70;4.70;;;;;;;;;;4980430;28;20076;-66
2022/04/27 08:01:56;;;;;;;13.95;4.35;;;;;;;;;;4973211;28;20076;-66
2022/04/27 08:04:22;;;;;;;23.75;4.82;;;;;;;;;;4977518;28;20035;-66
2022/04/27 08:06:48;;;;;;;14.45;3.80;;;;;;;;;;4986273;28;20113;-66
2022/04/27 08:09:14;;;;;;;18.98;4.68;;;;;;;;;;4977966;28;20031;-66
2022/04/27 08:11:41;;;;;;;8.10;3.90;;;;;;;;;;4991009;28;20045;-66
2022/04/27 08:14:07;;;;;;;10.10;4.30;;;;;;;;;;4977119;28;20140;-66
2022/04/27 08:16:33;;;;;;;12.82;3.67;;;;;;;;;;4981247;28;20032;-66
2022/04/27 08:18:59;;;;;;;9.38;4.45;;;;;;;;;;4987807;28;20030;-66
2022/04/27 08:21:27;;;;;;;10.48;4.05;;;;;;;;;;4978551;28;20058;-66
2022/04/27 08:23:53;;;;;;;17.48;4.32;;;;;;;;;;4987217;28;20500;-66
2022/04/27 08:26:20;;;;;;;16.98;4.07;;;;;;;;;;5016006;28;20111;-66
2022/04/27 08:28:46;;;;;;;11.05;4.82;;;;;;;;;;4983251;28;20034;-66
2022/04/27 08:31:13;;;;;;;7.85;4.18;;;;;;;;;;4979633;28;20026;-66
2022/04/27 08:33:39;;;;;;;12.32;4.97;;;;;;;;;;4986263;28;20038;-66
2022/04/27 08:36:05;;;;;;;11.10;4.47;;;;;;;;;;4989291;28;20111;-66
2022/04/27 08:38:33;;;;;;;13.68;4.75;;;;;;;;;;4984915;28;20079;-66
2022/04/27 08:41:00;;;;;;;15.40;5.45;;;;;;;;;;4975233;28;20089;-66
2022/04/27 08:43:26;;;;;;;12.32;4.68;;;;;;;;;;4973067;28;20041;-66
2022/04/27 08:45:54;;;;;;;8.10;4.50;;;;;;;;;;4982573;28;20742;-66
2022/04/27 08:48:21;;;;;;;16.25;5.20;;;;;;;;;;4995333;28;20026;-66
2022/04/27 08:50:48;;;;;;;9.80;4.43;;;;;;;;;;4976719;28;20407;-66
2022/04/27 08:53:15;;;;;;;10.77;5.20;;;;;;;;;;4981013;28;20027;-66
2022/04/27 08:55:41;;;;;;;11.98;5.25;;;;;;;;;;4987530;28;20475;-66
2022/04/27 08:58:08;;;;;;;13.15;5.15;;;;;;;;;;4980864;28;20049;-66
2022/04/27 09:00:35;;;;;;;10.57;5.10;;;;;;;;;;4975180;28;20042;-66
2022/04/27 09:03:19;;;;;;;14.05;5.07;;;;;;;;;;4979094;28;20034;-66
2022/04/27 09:05:49;;;;;;;18.15;5.32;;;;;;;;;;4982292;28;20054;-68
2022/04/27 09:08:15;;;;;;;13.45;4.55;;;;;;;;;;4976023;28;20049;-66
2022/04/27 09:10:41;;;;;;;12.20;5.07;;;;;;;;;;4981662;28;20103;-66
2022/04/27 09:13:07;;;;;;;7.10;4.18;;;;;;;;;;4981264;28;20476;-66
2022/04/27 09:15:33;;;;;;;7.65;4.07;;;;;;;;;;4974302;28;20069;-66
2022/04/27 09:20:49;;;;;;;14.60;4.93;;;;;;;;;;4978928;28;20433;-66
2022/04/27 09:23:24;;;;;;;9.15;4.40;;;;;;;;;;4976172;28;20065;-66
2022/04/27 09:25:51;;;;;;;16.45;5.78;;;;;;;;;;4998201;28;20053;-66
2022/04/27 09:28:18;;;;;;;15.02;4.28;;;;;;;;;;4977963;28;20055;-66
2022/04/27 09:30:45;;;;;;;9.15;4.30;;;;;;;;;;4985800;28;20411;-66
2022/04/27 09:33:11;;;;;;;12.52;3.83;;;;;;;;;;4979295;28;20026;-66
2022/04/27 09:35:38;;;;;;;12.43;4.20;;;;;;;;;;4983474;28;20121;-66
2022/04/27 09:38:13;;;;;;;11.23;4.90;;;;;;;;;;4983290;28;20019;-66
2022/04/27 09:40:57;;;;;;;10.77;5.13;;;;;;;;;;4976389;28;20035;-66
2022/04/27 09:43:42;;;;;;;10.05;5.13;;;;;;;;;;4995012;28;20030;-66
2022/04/27 09:46:20;;;;;;;8.38;4.32;;;;;;;;;;4977119;28;20092;-66
2022/04/27 09:48:46;;;;;;;11.48;5.25;;;;;;;;;;4980962;28;20458;-66
2022/04/27 09:51:15;;;;;;;15.23;4.60;;;;;;;;;;4977492;28;20069;-66
2022/04/27 09:53:42;;;;;;;12.82;5.35;;;;;;;;;;4973771;28;20057;-66
2022/04/27 09:56:12;;;;;;;9.48;4.57;;;;;;;;;;4975253;28;20049;-66
2022/04/27 09:58:43;;;;;;;8.82;5.30;;;;;;;;;;4979977;28;20553;-66
2022/04/27 10:01:11;;;;;;;11.35;4.93;;;;;;;;;;4986222;28;20019;-66
2022/04/27 10:03:39;;;;;;;12.82;5.30;;;;;;;;;;5001760;28;20028;-66
2022/04/27 10:06:06;;;;;;;14.60;5.18;;;;;;;;;;5002735;28;20365;-66
2022/04/27 10:08:35;;;;;;;13.82;4.70;;;;;;;;;;5004212;28;20040;-66
2022/04/27 10:11:01;;;;;;;9.70;5.00;;;;;;;;;;4983278;28;20089;-66
2022/04/27 10:13:28;;;;;;;8.90;4.75;;;;;;;;;;4985468;28;20614;-66
2022/04/27 10:15:54;;;;;;;14.05;4.93;;;;;;;;;;4981273;28;20419;-66
2022/04/27 10:18:21;;;;;;;12.55;4.60;;;;;;;;;;4978014;28;20070;-66
2022/04/27 10:20:51;;;;;;;15.43;5.35;;;;;;;;;;4983686;28;20129;-66
2022/04/27 10:23:19;;;;;;;12.15;5.50;;;;;;;;;;4978562;28;20034;-66
2022/04/27 10:26:05;;;;;;;12.20;5.07;;;;;;;;;;4985979;28;20022;-66
2022/04/27 10:28:34;;;;;;;14.88;4.85;;;;;;;;;;4987739;28;20037;-66
2022/04/27 10:31:07;;;;;;;13.55;4.78;;;;;;;;;;4983994;28;20027;-66
2022/04/27 10:33:48;;;;;;;13.80;5.13;;;;;;;;;;4980360;28;20495;-65
2022/04/27 10:36:29;;;;;;;13.45;5.60;;;;;;;;;;4974334;28;20027;-66
2022/04/27 10:39:14;;;;;;;16.98;5.13;;;;;;;;;;4974201;28;20492;-66
2022/04/27 10:41:54;;;;;;;8.93;4.80;;;;;;;;;;4978578;28;20049;-66
2022/04/27 10:44:21;;;;;;;11.75;5.20;;;;;;;;;;4975692;28;20031;-66
2022/04/27 10:46:47;;;;;;;10.13;5.50;;;;;;;;;;4975304;28;20034;-66
2022/04/27 10:49:23;;;;;;;16.48;7.05;;;;;;;;;;4977916;28;20022;-66
2022/04/27 10:52:16;;;;;;;13.77;5.13;;;;;;;;;;4977408;28;20092;-66
2022/04/27 10:54:42;;;;;;;10.17;5.23;;;;;;;;;;4979375;28;20035;-66
2022/04/27 10:57:18;;;;;;;15.57;5.85;;;;;;;;;;4975343;28;20055;-66
2022/04/27 11:00:05;;;;;;;19.23;7.63;;;;;;;;;;4979760;28;20031;-66
2022/04/27 11:02:32;;;;;;;14.30;6.40;;;;;;;;;;4979535;28;20131;-66
2022/04/27 11:04:59;;;;;;;16.48;6.45;;;;;;;;;;4972612;28;20608;-66
2022/04/27 11:07:38;;;;;;;12.43;6.72;;;;;;;;;;4978950;28;20035;-66
2022/04/27 11:10:17;;;;;;;15.15;6.90;;;;;;;;;;4972661;28;20030;-66
2022/04/27 11:12:46;;;;;;;16.35;6.70;;;;;;;;;;4972999;28;20384;-66
2022/04/27 11:15:15;;;;;;;13.32;7.00;;;;;;;;;;4973760;28;20420;-66
2022/04/27 11:17:42;;;;;;;15.52;6.70;;;;;;;;;;4972986;28;20030;-66
2022/04/27 11:20:23;;;;;;;12.35;5.90;;;;;;;;;;4977030;28;20323;-66
2022/04/27 11:22:56;;;;;;;13.57;6.43;;;;;;;;;;4979933;28;20027;-66
2022/04/27 11:25:29;;;;;;;11.70;5.18;;;;;;;;;;4971592;28;20030;-66
2022/04/27 11:27:55;;;;;;;10.93;5.22;;;;;;;;;;4971366;28;20034;-66
2022/04/27 11:30:22;;;;;;;12.68;7.40;;;;;;;;;;4979924;28;20023;-66
2022/04/27 11:32:49;;;;;;;16.00;6.95;;;;;;;;;;4975121;28;20076;-66
2022/04/27 11:35:16;;;;;;;11.95;4.93;;;;;;;;;;4977451;28;20061;-66
2022/04/27 11:37:42;;;;;;;16.63;5.28;;;;;;;;;;4975713;28;20058;-66
2022/04/27 11:40:19;;;;;;;13.00;5.30;;;;;;;;;;4978350;28;20117;-66
2022/04/27 11:42:46;;;;;;;14.57;4.93;;;;;;;;;;4977116;28;20376;-66
2022/04/27 11:45:12;;;;;;;10.25;4.93;;;;;;;;;;4991070;28;20160;-66
2022/04/27 11:47:39;;;;;;;13.15;5.45;;;;;;;;;;4984865;28;20042;-66
2022/04/27 11:50:06;;;;;;;8.85;4.57;;;;;;;;;;4975363;28;20080;-66
2022/04/27 11:52:39;;;;;;;11.80;6.15;;;;;;;;;;4977588;28;21256;-66
2022/04/27 11:55:12;;;;;;;11.18;4.97;;;;;;;;;;4973685;28;20037;-66
2022/04/27 11:57:39;;;;;;;;;;;;;;;;;;4974232;28;20571;-66
2022/04/27 12:00:05;;;;;;;12.73;5.25;;;;;;;;;;4978283;28;19910;-66
2022/04/27 12:02:41;;;;;;;9.43;4.40;;;;;;;;;;4972023;28;20039;-66
2022/04/27 12:05:08;;;;;;;11.18;4.95;;;;;;;;;;4973518;28;20086;-66
2022/04/27 12:07:35;;;;;;;12.40;4.40;;;;;;;;;;4972089;28;20035;-66
2022/04/27 12:10:03;;;;;;;8.80;4.40;;;;;;;;;;4974699;28;20100;-66
2022/04/27 12:12:31;;;;;;;12.60;4.30;;;;;;;;;;4980603;28;20034;-66
2022/04/27 12:14:57;;;;;;;11.93;5.07;;;;;;;;;;4971882;28;20023;-66
2022/04/27 12:17:42;;;;;;;8.00;4.60;;;;;;;;;;4975115;28;20110;-66
2022/04/27 12:20:33;;;;;;;9.43;4.22;;;;;;;;;;4977984;28;20031;-66
2022/04/27 12:23:00;;;;;;;15.23;5.97;;;;;;;;;;4982800;28;20089;-66
2022/04/27 12:25:54;;;;;;;11.60;5.05;;;;;;;;;;4975474;28;20117;-66
2022/04/27 12:28:21;;;;;;;11.48;5.22;;;;;;;;;;4981847;28;20074;-66
2022/04/27 12:30:52;;;;;;;16.98;6.40;;;;;;;;;;4985209;28;20416;-66
2022/04/27 12:33:21;;;;;;;8.15;4.88;;;;;;;;;;4974649;28;20029;-66
2022/04/27 12:38:33;;;;;;;11.27;5.03;;;;;;;;;;4973929;28;20027;-66
2022/04/27 12:40:59;;;;;;;9.90;4.53;;;;;;;;;;4974123;28;20026;-66
2022/04/27 12:43:26;;;;;;;10.88;3.97;;;;;;;;;;4971252;28;20073;-66
2022/04/27 12:46:05;;;;;;;11.82;4.88;;;;;;;;;;4976234;28;20035;-66
2022/04/27 12:48:32;;;;;;;11.02;4.72;;;;;;;;;;4968172;28;20045;-66
2022/04/27 12:50:59;;;;;;;8.45;4.28;;;;;;;;;;4974234;28;20526;-65
2022/04/27 12:53:25;;;;;;;11.23;4.78;;;;;;;;;;4973815;28;20075;-66
2022/04/27 12:56:22;;;;;;;11.48;4.75;;;;;;;;;;4973135;28;20109;-66
2022/04/27 12:59:03;;;;;;;13.18;4.43;;;;;;;;;;4990198;28;20435;-66
2022/04/27 13:01:30;;;;;;;10.18;4.75;;;;;;;;;;4974077;28;20043;-66
2022/04/27 13:03:56;;;;;;;8.82;4.60;;;;;;;;;;4970897;28;20015;-66
2022/04/27 13:06:23;;;;;;;8.80;4.40;;;;;;;;;;4977649;28;20392;-66
2022/04/27 13:08:49;;;;;;;9.00;4.15;;;;;;;;;;4971974;28;20038;-66
2022/04/27 13:14:01;;;;;;;10.70;4.78;;;;;;;;;;4977930;28;20160;-66
2022/04/27 13:16:27;;;;;;;13.27;5.45;;;;;;;;;;4975375;28;20019;-66
2022/04/27 13:18:55;;;;;;;14.32;5.90;;;;;;;;;;4971431;28;20026;-66
2022/04/27 13:21:21;;;;;;;10.48;5.55;;;;;;;;;;4975047;28;21154;-66
2022/04/27 13:23:47;;;;;;;11.52;5.28;;;;;;;;;;4970303;28;20030;-66
2022/04/27 13:26:13;;;;;;;16.33;5.20;;;;;;;;;;4976099;28;20022;-66
2022/04/27 13:28:40;;;;;;;9.82;4.20;;;;;;;;;;4971249;28;20026;-66
2022/04/27 13:31:10;;;;;;;12.20;4.70;;;;;;;;;;4975138;28;20037;-66
2022/04/27 13:33:36;;;;;;;15.02;5.50;;;;;;;;;;4969989;28;20047;-66
2022/04/27 13:36:02;;;;;;;15.38;5.28;;;;;;;;;;4977642;28;20037;-66
2022/04/27 13:38:29;;;;;;;9.77;4.78;;;;;;;;;;4972616;28;20027;-66
2022/04/27 13:40:55;;;;;;;10.82;4.88;;;;;;;;;;4972848;28;20027;-66
2022/04/27 13:43:21;;;;;;;11.43;5.25;;;;;;;;;;4969929;28;20039;-66
2022/04/27 13:45:47;;;;;;;10.77;5.50;;;;;;;;;;4972093;28;20034;-66
2022/04/27 13:48:14;;;;;;;10.57;5.35;;;;;;;;;;4972078;28;20492;-66
2022/04/27 13:50:40;;;;;;;10.05;4.75;;;;;;;;;;4971271;28;20034;-66
2022/04/27 13:53:06;;;;;;;10.15;5.68;;;;;;;;;;4971581;28;20029;-66
2022/04/27 13:55:35;;;;;;;9.73;5.60;;;;;;;;;;4973279;28;20025;-66
2022/04/27 13:58:02;;;;;;;10.63;6.40;;;;;;;;;;4970021;28;20055;-66
2022/04/27 14:00:28;;;;;;;16.27;6.63;;;;;;;;;;4971096;28;20053;-66
2022/04/27 14:02:54;;;;;;;13.45;5.07;;;;;;;;;;4968259;28;20022;-66
2022/04/27 14:05:21;;;;;;;12.75;5.53;;;;;;;;;;4970434;28;20089;-66
2022/04/27 14:07:47;;;;;;;12.93;5.50;;;;;;;;;;4971461;28;20043;-66
2022/04/27 14:10:14;;;;;;;22.73;6.07;;;;;;;;;;4969052;28;20106;-66
2022/04/27 14:15:27;;;;;;;8.35;4.82;;;;;;;;;;4974290;28;20035;-66
2022/04/27 14:18:13;;;;;;;12.82;5.18;;;;;;;;;;4980392;28;20019;-66
2022/04/27 14:20:41;;;;;;;14.00;5.60;;;;;;;;;;4976411;28;20350;-66
2022/04/27 14:23:09;;;;;;;12.40;5.07;;;;;;;;;;4970601;28;20057;-66
2022/04/27 14:25:36;;;;;;;15.00;5.50;;;;;;;;;;4972824;28;20442;-66
2022/04/27 14:28:02;;;;;;;16.50;5.95;;;;;;;;;;4974943;28;20038;-66
2022/04/27 14:30:28;;;;;;;18.65;6.03;;;;;;;;;;4974289;28;20088;-66
2022/04/27 14:32:54;;;;;;;13.23;5.28;;;;;;;;;;4971851;28;20443;-66
2022/04/27 14:35:21;;;;;;;13.93;5.45;;;;;;;;;;4970452;28;20023;-66
2022/04/27 14:37:47;;;;;;;11.90;4.88;;;;;;;;;;4970726;28;20023;-67
2022/04/27 14:40:14;;;;;;;12.38;4.85;;;;;;;;;;4977157;28;20034;-66
2022/04/27 14:42:40;;;;;;;10.68;5.32;;;;;;;;;;4969845;28;20030;-66
2022/04/27 14:45:08;;;;;;;15.90;5.72;;;;;;;;;;4976858;28;20027;-66
2022/04/27 14:47:34;;;;;;;12.05;4.47;;;;;;;;;;4976917;28;20031;-66
2022/04/27 14:50:00;;;;;;;14.30;5.22;;;;;;;;;;4974662;28;20043;-66
2022/04/27 14:52:26;;;;;;;11.93;4.90;;;;;;;;;;4976535;28;20044;-66
2022/04/27 14:54:53;;;;;;;10.93;4.60;;;;;;;;;;4975359;28;20507;-66
2022/04/27 14:57:19;;;;;;;12.13;5.55;;;;;;;;;;4977667;28;20070;-66
2022/04/27 14:59:45;;;;;;;15.70;5.68;;;;;;;;;;4976088;28;20030;-66
2022/04/27 15:02:11;;;;;;;21.95;5.78;;;;;;;;;;4973205;28;20092;-66
2022/04/27 15:04:38;;;;;;;11.38;5.32;;;;;;;;;;4977814;28;20117;-66
2022/04/27 15:07:04;;;;;;;12.02;5.82;;;;;;;;;;4975225;28;20022;-66
2022/04/27 15:09:30;;;;;;;16.95;5.82;;;;;;;;;;4973461;28;20027;-66
2022/04/27 15:11:56;;;;;;;9.75;4.97;;;;;;;;;;4973484;28;20039;-66